Time;durP1;ratioP1;P1;durP2;ratioP2;P2;SDS_P1;SDS_P2;PMS_P1;PMS_P2;Temp;Humidity;BMP_temperature;BMP_pressure;BME280_temperature;BME280_humidity;BME280_pressure;Samples;Min_cycle;Max_cycle;Signal;HPM_P1;HPM_P2
2023/07/26 00:01:43;;;;;;;4.00;1.55;;;13.20;99.90;;;;;;5033471;28;20048;-71
2023/07/26 00:04:15;;;;;;;4.13;1.60;;;13.20;99.90;;;;;;5031421;28;20057;-71
2023/07/26 00:06:41;;;;;;;2.97;1.40;;;13.20;99.90;;;;;;5031669;28;20557;-71
2023/07/26 00:09:08;;;;;;;3.88;1.60;;;13.20;99.90;;;;;;5031571;28;20132;-70
2023/07/26 00:11:35;;;;;;;3.65;1.40;;;13.20;99.90;;;;;;5033008;28;20038;-71
2023/07/26 00:14:03;;;;;;;4.03;1.45;;;13.20;99.90;;;;;;5032103;28;20083;-70
2023/07/26 00:16:35;;;;;;;5.25;1.30;;;13.20;99.90;;;;;;5032677;28;20053;-71
2023/07/26 00:19:01;;;;;;;3.63;1.42;;;13.20;99.90;;;;;;5031470;28;20068;-71
2023/07/26 00:21:27;;;;;;;3.63;1.50;;;13.10;99.90;;;;;;5032057;28;20045;-71
2023/07/26 00:23:53;;;;;;;3.28;1.27;;;13.10;99.90;;;;;;5033082;28;20037;-70
2023/07/26 00:26:19;;;;;;;3.38;1.70;;;13.10;99.90;;;;;;5033206;28;20052;-71
2023/07/26 00:28:45;;;;;;;3.92;1.20;;;13.00;99.90;;;;;;5032188;28;20045;-71
2023/07/26 00:31:10;;;;;;;4.25;1.35;;;13.00;99.90;;;;;;5032186;28;20057;-71
2023/07/26 00:33:36;;;;;;;3.55;1.38;;;13.00;99.90;;;;;;5032874;28;20124;-71
2023/07/26 00:36:02;;;;;;;3.95;1.40;;;12.90;99.90;;;;;;5032050;28;20041;-70
2023/07/26 00:38:30;;;;;;;4.03;1.20;;;12.90;99.90;;;;;;5033198;28;20038;-71
2023/07/26 00:40:56;;;;;;;3.40;1.42;;;12.80;99.90;;;;;;5032369;28;20044;-71
2023/07/26 00:43:24;;;;;;;6.50;1.60;;;12.90;99.90;;;;;;5031826;28;20053;-71
2023/07/26 00:45:51;;;;;;;3.80;1.75;;;12.90;99.90;;;;;;5031569;28;20089;-71
2023/07/26 00:48:17;;;;;;;5.20;1.95;;;12.90;99.90;;;;;;5030960;28;20088;-71
2023/07/26 00:50:47;;;;;;;5.47;2.03;;;12.90;99.90;;;;;;5031397;28;20441;-71
2023/07/26 00:53:14;;;;;;;4.00;1.83;;;12.90;99.90;;;;;;5031538;28;20099;-70
2023/07/26 00:55:42;;;;;;;5.03;1.80;;;13.00;99.90;;;;;;5032378;28;20040;-71
2023/07/26 00:58:09;;;;;;;4.57;1.60;;;13.00;99.90;;;;;;5032476;28;20049;-71
2023/07/26 01:00:39;;;;;;;2.95;1.50;;;13.00;99.90;;;;;;5032808;28;20053;-71
2023/07/26 01:03:05;;;;;;;7.65;2.03;;;13.00;99.90;;;;;;5032335;28;20501;-71
2023/07/26 01:05:39;;;;;;;6.43;1.70;;;13.00;99.90;;;;;;5031580;28;20080;-71
2023/07/26 01:08:18;;;;;;;4.60;1.73;;;13.00;99.90;;;;;;5032003;28;20044;-71
2023/07/26 01:10:56;;;;;;;3.95;1.60;;;13.00;99.90;;;;;;5032792;28;20037;-71
2023/07/26 01:13:48;;;;;;;3.67;1.60;;;12.90;99.90;;;;;;5032524;28;20481;-72
2023/07/26 01:16:14;;;;;;;5.25;1.60;;;12.90;99.90;;;;;;5032267;28;20087;-72
2023/07/26 01:18:40;;;;;;;4.55;1.42;;;12.90;99.90;;;;;;5030419;28;20081;-71
2023/07/26 01:21:06;;;;;;;4.15;1.65;;;12.80;99.90;;;;;;5031562;28;20045;-71
2023/07/26 01:23:32;;;;;;;2.83;1.60;;;12.80;99.90;;;;;;5030670;28;20543;-71
2023/07/26 01:25:58;;;;;;;4.57;1.50;;;12.70;99.90;;;;;;5031624;28;20550;-71
2023/07/26 01:28:23;;;;;;;5.60;1.70;;;12.70;99.90;;;;;;5031326;28;20049;-71
2023/07/26 01:30:53;;;;;;;4.28;1.65;;;12.60;99.90;;;;;;5031467;28;20057;-72
2023/07/26 01:33:20;;;;;;;3.47;1.80;;;12.60;99.90;;;;;;5032707;28;20095;-72
2023/07/26 01:35:47;;;;;;;4.80;1.60;;;12.60;99.90;;;;;;5031260;28;20060;-71
2023/07/26 01:38:14;;;;;;;9.15;2.00;;;12.50;99.90;;;;;;5031360;28;20044;-71
2023/07/26 01:40:40;;;;;;;4.75;1.90;;;12.50;99.90;;;;;;5032531;28;20049;-71
2023/07/26 01:43:09;;;;;;;4.88;1.80;;;12.50;99.90;;;;;;5030403;28;20103;-71
2023/07/26 01:45:34;;;;;;;7.03;2.00;;;12.50;99.90;;;;;;5032312;28;20050;-71
2023/07/26 01:48:03;;;;;;;4.30;2.00;;;12.40;99.90;;;;;;5030742;28;20052;-71
2023/07/26 01:50:29;;;;;;;4.50;1.80;;;12.50;99.90;;;;;;5030652;28;20049;-71
2023/07/26 01:52:55;;;;;;;6.45;2.00;;;12.40;99.90;;;;;;5032323;28;20042;-70
2023/07/26 01:55:21;;;;;;;6.60;1.85;;;12.40;99.90;;;;;;5031219;28;20046;-71
2023/07/26 01:57:46;;;;;;;6.13;1.73;;;12.40;99.90;;;;;;5030316;28;20489;-71
2023/07/26 02:00:12;;;;;;;4.72;1.90;;;12.40;99.90;;;;;;5032186;28;20486;-71
2023/07/26 02:02:38;;;;;;;5.13;1.92;;;12.40;99.90;;;;;;5030410;28;20188;-70
2023/07/26 02:05:04;;;;;;;6.75;1.65;;;12.40;99.90;;;;;;5030679;28;20045;-71
2023/07/26 02:07:33;;;;;;;4.20;1.90;;;12.40;99.90;;;;;;5032004;28;20072;-71
2023/07/26 02:09:59;;;;;;;5.40;1.60;;;12.50;99.90;;;;;;5032439;28;20077;-71
2023/07/26 02:12:25;;;;;;;5.25;1.77;;;12.50;99.90;;;;;;5031873;28;20398;-71
2023/07/26 02:14:51;;;;;;;4.20;1.80;;;12.50;99.90;;;;;;5031497;28;20125;-71
2023/07/26 02:17:19;;;;;;;5.10;1.88;;;12.50;99.90;;;;;;5030551;28;20062;-71
2023/07/26 02:19:45;;;;;;;4.03;1.85;;;12.60;99.90;;;;;;5029665;28;20052;-71
2023/07/26 02:22:20;;;;;;;4.55;1.75;;;12.50;99.90;;;;;;5032294;28;20046;-71
2023/07/26 02:24:45;;;;;;;4.93;1.65;;;13.00;99.90;;;;;;5031763;28;20054;-71
2023/07/26 02:27:11;;;;;;;4.38;1.80;;;12.60;99.90;;;;;;5031717;28;20037;-71
2023/07/26 02:29:37;;;;;;;5.90;2.17;;;12.60;99.90;;;;;;5031742;28;20145;-71
2023/07/26 02:32:03;;;;;;;4.90;2.10;;;12.70;99.90;;;;;;5030353;28;20068;-71
2023/07/26 02:34:28;;;;;;;5.43;2.13;;;12.70;99.90;;;;;;5030380;28;20049;-71
2023/07/26 02:36:57;;;;;;;5.80;2.30;;;12.80;99.90;;;;;;5030898;28;20405;-71
2023/07/26 02:39:22;;;;;;;7.85;2.35;;;12.80;99.90;;;;;;5031141;28;20402;-71
2023/07/26 02:41:48;;;;;;;6.88;2.17;;;12.80;99.90;;;;;;5030657;28;20136;-71
2023/07/26 02:44:14;;;;;;;8.85;2.17;;;12.80;99.90;;;;;;5034334;28;20385;-71
2023/07/26 02:46:39;;;;;;;5.03;1.92;;;12.90;99.90;;;;;;5034441;28;20064;-72
2023/07/26 02:49:08;;;;;;;8.77;2.17;;;12.90;99.90;;;;;;5034492;28;20053;-71
2023/07/26 02:51:34;;;;;;;5.60;2.05;;;12.90;99.90;;;;;;5035763;28;20099;-73
2023/07/26 02:53:59;;;;;;;5.70;1.77;;;12.80;99.90;;;;;;5035463;28;20057;-71
2023/07/26 02:56:25;;;;;;;7.43;2.08;;;12.90;99.90;;;;;;5035547;28;20045;-71
2023/07/26 02:58:51;;;;;;;7.60;2.13;;;12.80;99.90;;;;;;5034255;28;20136;-71
2023/07/26 03:01:17;;;;;;;9.57;2.03;;;12.90;99.90;;;;;;5035079;28;20107;-71
2023/07/26 03:03:43;;;;;;;5.82;2.10;;;12.80;99.90;;;;;;5034971;28;20045;-71
2023/07/26 03:06:09;;;;;;;4.50;2.22;;;12.80;99.90;;;;;;5034705;28;20041;-71
2023/07/26 03:08:35;;;;;;;8.00;2.25;;;12.90;99.90;;;;;;5032148;28;20068;-71
2023/07/26 03:11:00;;;;;;;5.10;2.10;;;12.80;99.90;;;;;;5034127;28;20057;-71
2023/07/26 03:13:27;;;;;;;5.88;1.90;;;12.80;99.90;;;;;;5033829;28;20095;-71
2023/07/26 03:15:54;;;;;;;9.80;2.20;;;12.80;99.90;;;;;;5033942;28;20049;-71
2023/07/26 03:18:20;;;;;;;5.80;1.90;;;12.70;99.90;;;;;;5033107;28;20059;-70
2023/07/26 03:20:49;;;;;;;8.52;1.92;;;12.70;99.90;;;;;;5032452;28;20053;-71
2023/07/26 03:23:15;;;;;;;5.15;1.90;;;12.70;99.90;;;;;;5034310;28;20504;-70
2023/07/26 03:25:43;;;;;;;6.63;2.05;;;12.70;99.90;;;;;;5034132;28;20045;-70
2023/07/26 03:28:09;;;;;;;6.68;2.03;;;12.60;99.90;;;;;;5034529;28;20050;-70
2023/07/26 03:30:35;;;;;;;6.25;1.55;;;12.60;99.90;;;;;;5032539;28;20050;-70
2023/07/26 03:33:00;;;;;;;6.95;1.80;;;12.60;99.90;;;;;;5033536;28;20053;-70
2023/07/26 03:35:29;;;;;;;5.88;1.73;;;12.60;99.90;;;;;;5033090;28;20123;-70
2023/07/26 03:37:54;;;;;;;5.40;1.80;;;12.60;99.90;;;;;;5032010;28;20507;-70
2023/07/26 03:40:20;;;;;;;5.95;1.95;;;12.60;99.90;;;;;;5027525;28;20034;-71
2023/07/26 03:42:46;;;;;;;5.72;1.80;;;12.50;99.90;;;;;;5013697;28;20041;-71
2023/07/26 03:45:11;;;;;;;7.32;2.00;;;12.50;99.90;;;;;;5027280;28;20397;-71
2023/07/26 03:47:37;;;;;;;5.70;1.77;;;12.50;99.90;;;;;;5033762;28;20045;-71
2023/07/26 03:50:03;;;;;;;6.05;2.10;;;12.40;99.90;;;;;;5032640;28;20064;-71
2023/07/26 03:52:29;;;;;;;4.63;1.60;;;12.40;99.90;;;;;;5032126;28;20049;-70
2023/07/26 03:54:54;;;;;;;4.63;2.00;;;12.40;99.90;;;;;;5032346;28;20045;-71
2023/07/26 03:57:20;;;;;;;5.40;1.77;;;12.40;99.90;;;;;;5031513;28;20041;-71
2023/07/26 03:59:49;;;;;;;4.32;1.50;;;12.40;99.90;;;;;;5032798;28;20045;-71
2023/07/26 04:02:14;;;;;;;5.07;1.77;;;12.40;99.90;;;;;;5034065;28;20057;-69
2023/07/26 04:04:40;;;;;;;7.47;2.00;;;12.40;99.90;;;;;;5032857;28;20080;-69
2023/07/26 04:07:06;;;;;;;6.63;1.90;;;12.40;99.90;;;;;;5033045;28;20060;-69
2023/07/26 04:09:32;;;;;;;3.78;1.58;;;12.50;99.90;;;;;;5032063;28;20064;-70
2023/07/26 04:11:58;;;;;;;6.43;2.10;;;12.50;99.90;;;;;;5033388;28;20129;-73
2023/07/26 04:14:24;;;;;;;6.80;1.80;;;12.50;99.90;;;;;;5032639;28;20124;-71
2023/07/26 04:16:51;;;;;;;5.13;1.75;;;12.60;99.90;;;;;;5031389;28;20041;-72
2023/07/26 04:19:17;;;;;;;6.30;1.77;;;12.60;99.90;;;;;;5052393;28;20056;-72
2023/07/26 04:21:43;;;;;;;5.50;1.90;;;12.60;99.90;;;;;;5052354;28;20126;-72
2023/07/26 04:24:08;;;;;;;4.65;1.88;;;12.70;99.90;;;;;;5035298;28;20056;-72
2023/07/26 04:26:40;;;;;;;5.10;1.90;;;12.70;99.90;;;;;;5034098;28;20044;-72
2023/07/26 04:29:06;;;;;;;3.92;1.98;;;12.70;99.90;;;;;;5053609;28;20400;-72
2023/07/26 04:31:32;;;;;;;6.97;1.98;;;12.60;99.90;;;;;;5035208;28;20053;-72
2023/07/26 04:33:58;;;;;;;6.00;2.00;;;12.60;99.90;;;;;;5034976;28;20569;-72
2023/07/26 04:36:24;;;;;;;6.05;2.00;;;12.60;99.90;;;;;;5053621;28;20040;-72
2023/07/26 04:38:50;;;;;;;6.10;1.77;;;12.70;99.90;;;;;;5050936;28;20175;-72
2023/07/26 04:41:15;;;;;;;5.40;1.95;;;12.60;99.90;;;;;;5032587;28;20033;-72
2023/07/26 04:43:41;;;;;;;4.70;2.00;;;12.60;99.90;;;;;;5033023;28;20041;-72
2023/07/26 04:46:07;;;;;;;5.57;2.30;;;12.60;99.90;;;;;;5032912;28;20364;-71
2023/07/26 04:48:37;;;;;;;4.70;2.00;;;12.70;99.90;;;;;;5034091;28;20052;-71
2023/07/26 04:51:03;;;;;;;5.18;1.90;;;12.70;99.90;;;;;;5051292;28;20045;-72
2023/07/26 04:53:29;;;;;;;4.20;1.90;;;12.70;99.90;;;;;;5051901;28;20481;-72
2023/07/26 04:55:55;;;;;;;5.25;1.83;;;12.70;99.90;;;;;;5034990;28;20481;-72
2023/07/26 04:58:24;;;;;;;5.82;1.88;;;12.70;99.90;;;;;;5052965;28;20036;-72
2023/07/26 05:00:50;;;;;;;4.22;1.60;;;12.70;99.90;;;;;;5052096;28;20048;-72
2023/07/26 05:03:18;;;;;;;7.40;2.20;;;12.80;99.90;;;;;;5053099;28;20066;-72
2023/07/26 05:05:50;;;;;;;5.75;2.08;;;12.80;99.90;;;;;;5034414;28;20053;-71
2023/07/26 05:08:16;;;;;;;4.88;2.17;;;12.80;99.90;;;;;;5034484;28;20049;-71
2023/07/26 05:10:41;;;;;;;7.03;2.13;;;12.80;99.90;;;;;;5033772;28;20091;-72
2023/07/26 05:13:07;;;;;;;6.35;1.90;;;12.80;99.90;;;;;;5034904;28;20059;-72
2023/07/26 05:15:33;;;;;;;4.57;2.05;;;12.80;99.90;;;;;;5052545;28;20045;-72
2023/07/26 05:17:59;;;;;;;5.43;1.90;;;12.70;99.90;;;;;;5034761;28;20173;-72
2023/07/26 05:20:25;;;;;;;3.05;1.60;;;12.70;99.90;;;;;;5034121;28;20088;-72
2023/07/26 05:22:53;;;;;;;3.65;1.80;;;12.70;99.90;;;;;;5033934;28;20049;-72
2023/07/26 05:25:20;;;;;;;6.90;2.15;;;12.80;99.90;;;;;;5034843;28;20065;-72
2023/07/26 05:27:46;;;;;;;4.78;2.05;;;12.70;99.90;;;;;;5034302;28;20064;-71
2023/07/26 05:30:11;;;;;;;6.03;2.55;;;12.80;99.90;;;;;;5051856;28;20465;-71
2023/07/26 05:32:37;;;;;;;5.45;2.17;;;12.80;99.90;;;;;;5033813;28;20136;-72
2023/07/26 05:35:03;;;;;;;6.03;2.20;;;12.90;99.90;;;;;;5052357;28;20045;-72
2023/07/26 05:37:34;;;;;;;6.75;2.40;;;12.80;99.90;;;;;;5051744;28;20515;-73
2023/07/26 05:40:00;;;;;;;4.78;2.30;;;12.80;99.90;;;;;;5052291;28;20041;-71
2023/07/26 05:42:32;;;;;;;3.97;2.13;;;12.80;99.90;;;;;;5033474;28;20140;-71
2023/07/26 05:45:01;;;;;;;4.22;2.20;;;12.80;99.90;;;;;;5034157;28;20052;-70
2023/07/26 05:47:28;;;;;;;10.25;2.80;;;12.80;99.90;;;;;;5034075;28;20045;-72
2023/07/26 05:49:53;;;;;;;8.27;2.75;;;12.90;99.90;;;;;;5033658;28;20106;-71
2023/07/26 05:52:25;;;;;;;8.18;2.90;;;12.80;99.90;;;;;;5034266;28;20041;-72
2023/07/26 05:54:50;;;;;;;5.68;2.60;;;12.80;99.90;;;;;;5033829;28;20040;-72
2023/07/26 05:57:16;;;;;;;6.03;2.28;;;12.80;99.90;;;;;;5051666;28;20175;-72
2023/07/26 05:59:42;;;;;;;5.28;2.47;;;12.80;99.90;;;;;;5034036;28;20081;-72
2023/07/26 06:02:08;;;;;;;7.03;2.60;;;12.80;99.90;;;;;;5051742;28;20052;-72
2023/07/26 06:04:34;;;;;;;5.50;2.30;;;12.70;99.90;;;;;;5051449;28;20095;-72
2023/07/26 06:07:00;;;;;;;5.55;2.25;;;12.70;99.90;;;;;;5051068;28;20041;-72
2023/07/26 06:09:26;;;;;;;4.20;2.22;;;12.70;99.90;;;;;;5030355;28;20118;-72
2023/07/26 06:11:52;;;;;;;5.35;2.35;;;12.70;99.90;;;;;;5033431;28;20053;-72
2023/07/26 06:14:18;;;;;;;5.88;2.63;;;12.70;99.90;;;;;;5034537;28;20485;-72
2023/07/26 06:16:43;;;;;;;3.72;2.08;;;12.70;99.90;;;;;;5033341;28;20072;-71
2023/07/26 06:19:09;;;;;;;3.63;1.80;;;12.80;99.90;;;;;;5035932;28;20084;-71
2023/07/26 06:21:35;;;;;;;4.68;2.47;;;12.70;99.90;;;;;;5037703;28;20128;-72
2023/07/26 06:24:01;;;;;;;4.72;2.42;;;12.70;99.90;;;;;;5037408;28;20040;-72
2023/07/26 06:26:29;;;;;;;5.40;2.50;;;12.80;99.90;;;;;;5037229;28;20044;-72
2023/07/26 06:28:54;;;;;;;4.72;2.28;;;12.80;99.90;;;;;;5037522;28;20064;-72
2023/07/26 06:31:23;;;;;;;4.63;2.30;;;12.80;99.90;;;;;;5055860;28;20036;-72
2023/07/26 06:33:48;;;;;;;5.80;2.50;;;12.80;99.90;;;;;;5036759;28;20055;-72
2023/07/26 06:36:14;;;;;;;4.63;2.30;;;12.80;99.90;;;;;;5055196;28;20532;-72
2023/07/26 06:38:40;;;;;;;5.03;2.70;;;12.90;99.90;;;;;;5053624;28;20891;-72
2023/07/26 06:41:06;;;;;;;4.53;2.45;;;12.90;99.90;;;;;;5037186;28;20041;-71
2023/07/26 06:43:38;;;;;;;6.68;2.65;;;12.90;99.90;;;;;;5036990;28;20118;-72
2023/07/26 06:46:04;;;;;;;4.65;2.42;;;12.90;99.90;;;;;;5054951;28;20045;-71
2023/07/26 06:48:30;;;;;;;4.55;2.42;;;13.00;99.90;;;;;;5055284;28;20508;-71
2023/07/26 06:50:56;;;;;;;5.85;2.85;;;12.90;99.90;;;;;;5036643;28;20045;-71
2023/07/26 06:53:21;;;;;;;6.53;2.70;;;12.90;99.90;;;;;;5054675;28;20040;-71
2023/07/26 06:56:00;;;;;;;4.65;2.47;;;12.80;99.90;;;;;;5037168;28;20048;-72
2023/07/26 06:58:26;;;;;;;5.38;2.60;;;12.80;99.90;;;;;;5037198;28;20045;-71
2023/07/26 07:00:52;;;;;;;4.93;2.67;;;12.80;99.90;;;;;;5054560;28;20068;-72
2023/07/26 07:03:18;;;;;;;5.93;2.35;;;12.80;99.90;;;;;;5055071;28;20501;-71
2023/07/26 07:05:44;;;;;;;6.70;2.33;;;12.90;99.90;;;;;;5054135;28;20044;-72
2023/07/26 07:08:09;;;;;;;5.25;2.67;;;12.90;99.90;;;;;;5054575;28;20041;-72
2023/07/26 07:10:35;;;;;;;3.83;2.00;;;12.90;99.90;;;;;;5036834;28;20052;-72
2023/07/26 07:13:01;;;;;;;5.28;2.50;;;13.00;99.90;;;;;;5036608;28;20392;-72
2023/07/26 07:15:27;;;;;;;4.03;2.20;;;13.10;99.90;;;;;;5035919;28;20094;-72
2023/07/26 07:17:52;;;;;;;4.03;2.10;;;13.10;99.90;;;;;;5053952;28;20064;-72
2023/07/26 07:20:18;;;;;;;6.15;2.40;;;13.20;99.90;;;;;;5036805;28;20118;-72
2023/07/26 07:22:44;;;;;;;6.22;2.60;;;13.30;99.90;;;;;;5036267;28;20041;-72
2023/07/26 07:25:09;;;;;;;6.25;2.78;;;13.40;99.90;;;;;;5054290;28;20482;-72
2023/07/26 07:27:38;;;;;;;4.85;2.55;;;13.50;99.90;;;;;;5054270;28;20043;-72
2023/07/26 07:30:04;;;;;;;3.55;1.98;;;13.60;99.90;;;;;;5053513;28;20488;-72
2023/07/26 07:32:30;;;;;;;4.03;2.10;;;13.70;99.90;;;;;;5054607;28;20048;-72
2023/07/26 07:34:56;;;;;;;5.85;2.47;;;13.90;99.90;;;;;;5035914;28;20041;-73
2023/07/26 07:37:22;;;;;;;5.22;2.10;;;14.70;99.90;;;;;;5054399;28;20037;-73
2023/07/26 07:39:57;;;;;;;5.38;2.30;;;15.80;99.90;;;;;;5036273;28;20115;-73
2023/07/26 07:42:23;;;;;;;5.07;2.20;;;16.70;99.90;;;;;;5036186;28;20553;-73
2023/07/26 07:44:51;;;;;;;3.60;1.75;;;17.20;99.90;;;;;;5053276;28;20068;-73
2023/07/26 07:47:17;;;;;;;5.07;1.92;;;17.40;99.90;;;;;;5054049;28;20480;-73
2023/07/26 07:49:46;;;;;;;4.93;1.90;;;17.90;99.90;;;;;;5053285;28;20052;-73
2023/07/26 07:52:12;;;;;;;5.50;2.00;;;18.40;99.90;;;;;;5036543;28;20084;-73
2023/07/26 07:54:38;;;;;;;3.22;1.80;;;18.30;99.90;;;;;;5035248;28;20504;-72
2023/07/26 07:57:04;;;;;;;3.58;1.90;;;17.80;99.90;;;;;;5036026;28;20041;-72
2023/07/26 07:59:30;;;;;;;3.80;1.90;;;17.40;99.90;;;;;;5035756;28;20488;-73
2023/07/26 08:01:55;;;;;;;6.15;1.88;;;17.90;99.90;;;;;;5053647;28;20041;-73
2023/07/26 08:04:24;;;;;;;4.28;1.80;;;18.80;99.90;;;;;;5034908;28;20045;-73
2023/07/26 08:06:52;;;;;;;5.72;2.10;;;19.60;99.90;;;;;;5035910;28;20194;-74
2023/07/26 08:09:18;;;;;;;3.40;1.63;;;20.10;99.90;;;;;;5035813;28;20132;-73
2023/07/26 08:11:44;;;;;;;2.85;1.70;;;20.60;99.90;;;;;;5033475;28;20130;-73
2023/07/26 08:14:09;;;;;;;4.40;1.90;;;21.00;99.90;;;;;;5051717;28;20048;-73
2023/07/26 08:16:40;;;;;;;4.70;1.85;;;21.40;99.90;;;;;;5053381;28;20493;-74
2023/07/26 08:19:05;;;;;;;5.40;1.95;;;21.50;99.90;;;;;;5035068;28;20052;-74
2023/07/26 08:21:31;;;;;;;5.13;1.85;;;21.60;99.90;;;;;;5035322;28;20051;-75
2023/07/26 08:23:57;;;;;;;4.40;1.85;;;22.10;99.90;;;;;;5052930;28;20096;-74
2023/07/26 08:26:26;;;;;;;5.30;2.00;;;22.60;99.90;;;;;;5035847;28;20392;-73
2023/07/26 08:28:51;;;;;;;7.78;2.50;;;22.80;99.90;;;;;;5052506;28;20131;-74
2023/07/26 08:31:17;;;;;;;4.60;2.00;;;23.10;99.90;;;;;;5052660;28;20037;-74
2023/07/26 08:33:43;;;;;;;3.58;1.85;;;23.40;99.90;;;;;;5035247;28;20052;-74
2023/07/26 08:36:08;;;;;;;5.05;1.98;;;23.40;99.90;;;;;;5053456;28;20079;-74
2023/07/26 08:38:34;;;;;;;3.47;1.65;;;23.70;99.90;;;;;;5051969;28;20068;-74
2023/07/26 08:41:01;;;;;;;5.07;1.85;;;23.60;98.70;;;;;;5034491;28;20039;-74
2023/07/26 08:43:31;;;;;;;4.90;1.95;;;23.40;98.20;;;;;;5035194;28;20041;-74
2023/07/26 08:46:02;;;;;;;4.22;1.50;;;23.50;99.20;;;;;;5034662;28;20123;-74
2023/07/26 08:48:29;;;;;;;5.00;1.85;;;23.70;99.20;;;;;;5034872;28;20057;-75
2023/07/26 08:50:55;;;;;;;4.05;1.65;;;24.00;98.70;;;;;;5034952;28;20397;-74
2023/07/26 08:53:22;;;;;;;7.13;1.80;;;24.10;98.50;;;;;;5053020;28;20045;-74
2023/07/26 08:55:48;;;;;;;3.88;1.63;;;23.90;98.00;;;;;;5035142;28;20057;-75
2023/07/26 08:58:14;;;;;;;4.35;1.92;;;24.00;97.30;;;;;;5035113;28;20052;-75
2023/07/26 09:00:40;;;;;;;3.63;1.67;;;24.20;96.70;;;;;;5052153;28;20059;-74
2023/07/26 09:03:10;;;;;;;4.05;1.35;;;24.00;97.40;;;;;;5052463;28;20503;-73
2023/07/26 09:05:37;;;;;;;4.07;1.40;;;23.00;96.60;;;;;;5034217;28;20090;-73
2023/07/26 09:08:02;;;;;;;3.80;1.63;;;22.50;96.80;;;;;;5033836;28;20043;-74
2023/07/26 09:10:30;;;;;;;3.67;1.58;;;22.60;98.80;;;;;;5034314;28;20045;-73
2023/07/26 09:13:14;;;;;;;4.03;1.67;;;22.90;99.00;;;;;;5052584;28;20099;-73
2023/07/26 09:15:42;;;;;;;5.85;2.00;;;22.60;99.30;;;;;;5034309;28;20059;-73
2023/07/26 09:18:08;;;;;;;4.15;1.80;;;22.70;99.10;;;;;;5035981;28;20087;-73
2023/07/26 09:20:36;;;;;;;4.88;1.90;;;23.20;99.40;;;;;;5038914;28;20087;-72
2023/07/26 09:23:11;;;;;;;4.43;2.13;;;23.40;98.20;;;;;;5054714;28;20058;-74
2023/07/26 09:25:43;;;;;;;6.43;2.20;;;23.10;98.20;;;;;;5035379;28;20080;-73
2023/07/26 09:28:13;;;;;;;4.60;2.03;;;22.50;99.00;;;;;;5053956;28;20044;-73
2023/07/26 09:30:45;;;;;;;6.72;2.28;;;21.70;99.90;;;;;;5050339;28;20468;-72
2023/07/26 09:33:11;;;;;;;8.02;2.45;;;21.10;99.90;;;;;;5043659;28;20479;-73
2023/07/26 09:35:46;;;;;;;5.97;2.10;;;20.60;99.90;;;;;;5035927;28;20094;-72
2023/07/26 09:38:32;;;;;;;5.35;2.20;;;20.20;99.90;;;;;;5043721;28;20124;-72
2023/07/26 09:40:58;;;;;;;6.68;2.80;;;20.10;99.90;;;;;;5061767;28;20064;-73
2023/07/26 09:43:32;;;;;;;5.28;2.03;;;20.00;99.90;;;;;;5041202;28;20044;-73
2023/07/26 09:46:05;;;;;;;5.63;1.90;;;19.70;99.90;;;;;;5037957;28;20131;-72
2023/07/26 09:48:31;;;;;;;3.55;1.60;;;19.40;99.90;;;;;;5064891;28;20036;-72
2023/07/26 09:51:02;;;;;;;4.50;1.80;;;19.30;99.90;;;;;;5060002;28;20052;-70
2023/07/26 09:53:33;;;;;;;3.53;1.70;;;19.30;99.90;;;;;;5039624;28;20037;-71
2023/07/26 09:56:00;;;;;;;3.63;1.33;;;19.90;99.90;;;;;;5040710;28;20040;-73
2023/07/26 09:58:32;;;;;;;3.72;1.67;;;20.50;99.90;;;;;;5061656;28;20144;-73
2023/07/26 10:01:01;;;;;;;3.90;1.80;;;20.70;99.90;;;;;;5062607;28;20053;-73
2023/07/26 10:03:29;;;;;;;6.25;1.80;;;20.80;99.90;;;;;;5046421;28;20048;-72
2023/07/26 10:05:56;;;;;;;5.55;1.85;;;20.90;99.90;;;;;;5042876;28;20032;-73
2023/07/26 10:08:23;;;;;;;5.25;1.88;;;20.90;99.90;;;;;;5067436;28;20088;-73
2023/07/26 10:10:55;;;;;;;4.35;1.50;;;20.90;99.90;;;;;;5046229;28;20060;-74
2023/07/26 10:13:23;;;;;;;2.78;1.52;;;21.10;99.90;;;;;;5043877;28;20040;-74
2023/07/26 10:15:51;;;;;;;4.00;1.60;;;21.30;99.90;;;;;;5042554;28;20400;-74
2023/07/26 10:18:19;;;;;;;3.95;1.70;;;21.90;99.90;;;;;;5034940;28;20096;-72
2023/07/26 10:20:47;;;;;;;4.10;1.85;;;22.10;99.90;;;;;;5060108;28;20250;-72
2023/07/26 10:23:16;;;;;;;3.90;1.80;;;22.10;99.90;;;;;;5064097;28;20044;-72
2023/07/26 10:25:45;;;;;;;3.88;1.70;;;21.70;99.90;;;;;;5037002;28;20400;-72
2023/07/26 10:28:11;;;;;;;4.47;2.00;;;21.40;99.90;;;;;;5060715;28;20075;-72
2023/07/26 10:30:38;;;;;;;4.13;1.70;;;21.00;99.90;;;;;;5046932;28;20037;-72
2023/07/26 10:33:13;;;;;;;3.60;1.80;;;21.00;99.90;;;;;;5044331;28;20045;-72
2023/07/26 10:35:42;;;;;;;3.77;1.70;;;21.00;99.90;;;;;;5040389;28;20483;-71
2023/07/26 10:38:13;;;;;;;5.47;1.83;;;20.60;99.90;;;;;;5044038;28;20179;-71
2023/07/26 10:40:43;;;;;;;3.10;1.83;;;20.40;99.90;;;;;;5039343;28;20042;-71
2023/07/26 10:43:24;;;;;;;6.35;1.73;;;20.10;99.90;;;;;;5042307;28;20049;-71
2023/07/26 10:45:54;;;;;;;3.25;1.65;;;19.60;99.90;;;;;;5063632;28;20511;-71
2023/07/26 10:48:28;;;;;;;3.42;1.58;;;19.80;99.90;;;;;;5061183;28;20048;-72
2023/07/26 10:50:58;;;;;;;3.38;1.52;;;20.50;99.90;;;;;;5043422;28;20060;-71
2023/07/26 10:53:37;;;;;;;3.22;1.65;;;21.40;99.90;;;;;;5056171;28;20566;-71
2023/07/26 10:56:12;;;;;;;3.20;1.40;;;22.30;99.90;;;;;;5035928;28;20045;-72
2023/07/26 10:59:13;;;;;;;5.00;1.50;;;23.10;99.90;;;;;;5034097;28;20053;-71
2023/07/26 11:01:45;;;;;;;2.78;1.40;;;23.50;96.60;;;;;;5041107;28;20053;-72
2023/07/26 11:04:13;;;;;;;3.63;1.70;;;23.70;97.60;;;;;;5058717;28;20037;-72
2023/07/26 11:06:56;;;;;;;3.25;1.25;;;23.50;97.20;;;;;;5032333;28;20049;-72
2023/07/26 11:09:30;;;;;;;2.30;1.20;;;23.50;97.30;;;;;;5050796;28;20131;-72
2023/07/26 11:12:09;;;;;;;3.13;1.25;;;23.50;97.90;;;;;;5036379;28;20080;-73
2023/07/26 11:14:35;;;;;;;;;;;24.10;97.70;;;;;;5036179;28;20049;-72
2023/07/26 11:17:10;;;;;;;6.88;1.58;;;23.90;97.80;;;;;;5032972;28;20280;-72
2023/07/26 11:19:47;;;;;;;2.85;1.30;;;23.70;96.90;;;;;;5029878;28;20497;-72
2023/07/26 11:22:12;;;;;;;3.78;1.60;;;23.20;96.90;;;;;;5000965;28;20072;-71
2023/07/26 11:24:38;;;;;;;3.38;1.27;;;23.40;98.20;;;;;;5015368;28;20076;-72
2023/07/26 11:27:06;;;;;;;4.47;1.30;;;24.00;97.00;;;;;;5033214;28;20045;-72
2023/07/26 11:29:33;;;;;;;6.50;1.45;;;23.80;96.60;;;;;;5016384;28;20034;-72
2023/07/26 11:32:03;;;;;;;4.05;1.48;;;23.50;96.90;;;;;;5031411;28;20049;-71
2023/07/26 11:34:29;;;;;;;5.20;1.48;;;23.50;97.10;;;;;;5015037;28;20096;-72
2023/07/26 11:37:12;;;;;;;3.70;1.10;;;23.80;96.60;;;;;;5031657;28;20397;-73
2023/07/26 11:39:37;;;;;;;2.67;1.10;;;23.90;97.10;;;;;;5033520;28;20120;-73
2023/07/26 11:42:06;;;;;;;4.05;1.52;;;23.50;96.70;;;;;;5015689;28;20120;-73
2023/07/26 11:44:32;;;;;;;3.42;1.30;;;23.20;96.70;;;;;;5015121;28;20087;-73
2023/07/26 11:47:04;;;;;;;3.35;1.70;;;23.20;96.80;;;;;;5018075;28;20041;-71
2023/07/26 11:49:32;;;;;;;4.00;1.40;;;23.40;97.40;;;;;;5033158;28;20041;-72
2023/07/26 11:51:57;;;;;;;3.45;1.50;;;23.90;97.40;;;;;;5015561;28;20121;-71
2023/07/26 11:54:26;;;;;;;3.30;1.58;;;24.10;97.10;;;;;;5032999;28;20117;-71
2023/07/26 11:56:52;;;;;;;5.75;1.60;;;24.20;96.20;;;;;;5032661;28;20045;-71
2023/07/26 11:59:18;;;;;;;3.88;1.40;;;24.30;96.80;;;;;;5015959;28;20133;-72
2023/07/26 12:01:44;;;;;;;3.20;1.23;;;24.40;96.50;;;;;;5015537;28;20545;-72
2023/07/26 12:04:16;;;;;;;4.57;1.60;;;24.40;95.50;;;;;;5032582;28;20120;-72
2023/07/26 12:06:44;;;;;;;5.93;1.70;;;24.40;95.70;;;;;;5014080;28;20041;-72
2023/07/26 12:09:11;;;;;;;3.40;1.25;;;24.30;95.70;;;;;;5032338;28;20400;-72
2023/07/26 12:11:42;;;;;;;4.47;1.30;;;24.50;96.10;;;;;;5012287;28;20054;-73
2023/07/26 12:14:08;;;;;;;3.47;1.30;;;24.70;95.90;;;;;;5027117;28;20057;-73
2023/07/26 12:16:35;;;;;;;4.25;1.52;;;24.80;94.80;;;;;;5013185;28;20041;-72
2023/07/26 12:19:01;;;;;;;4.70;1.40;;;24.90;95.10;;;;;;5047650;28;20057;-72
2023/07/26 12:21:29;;;;;;;3.58;1.50;;;24.70;94.70;;;;;;5034625;28;20095;-73
2023/07/26 12:24:06;;;;;;;3.08;1.17;;;24.20;94.60;;;;;;5031108;28;20049;-72
2023/07/26 12:26:34;;;;;;;4.07;1.50;;;24.30;95.60;;;;;;5053029;28;20122;-73
2023/07/26 12:29:02;;;;;;;5.88;1.70;;;24.50;96.00;;;;;;5053511;28;20508;-72
2023/07/26 12:31:30;;;;;;;4.07;1.48;;;24.70;94.90;;;;;;5052326;28;20041;-72
2023/07/26 12:33:55;;;;;;;4.45;1.80;;;24.80;95.10;;;;;;5030698;28;20045;-72
2023/07/26 12:36:23;;;;;;;3.80;1.50;;;25.00;95.00;;;;;;5052855;28;20044;-72
2023/07/26 12:38:48;;;;;;;3.53;1.45;;;24.80;95.20;;;;;;5051792;28;20068;-72
2023/07/26 12:41:17;;;;;;;6.35;1.90;;;24.80;94.50;;;;;;5052426;28;20385;-72
2023/07/26 12:43:43;;;;;;;6.43;1.75;;;24.40;94.90;;;;;;5030383;28;20048;-72
2023/07/26 12:46:09;;;;;;;3.30;1.40;;;24.20;95.20;;;;;;5050245;28;20412;-72
2023/07/26 12:48:41;;;;;;;3.47;1.38;;;24.10;95.30;;;;;;5051864;28;20049;-72
2023/07/26 12:51:07;;;;;;;5.50;1.73;;;24.00;95.90;;;;;;5034645;28;20130;-72